Wetterdaten: Woche 03.10.11 - 09.10.11 (KW40)
Datum Zeit Temp. Innen Temp. Aussen UV X Diff Temp. Feuchte Inne Feuchte Auss Sonnenschein Luftdruck Regen ab 0,1 Wind Sonnenschein T Regendauer Windben
03.10.2011 00:00 23,3 C 12,9 C 0,0 UV-I 0,0 C 59 % 89 % 0 % 1023,7 hPa 0,0 l/m 0,0 km/h (0 Bft) 0,00 h 0,03 h 0,0 km/h (0 Bft)
03.10.2011 01:00 23,1 C 12,4 C 0,0 UV-I 0,0 C 59 % 90 % 0 % 1023,5 hPa 0,0 l/m 0,0 km/h (0 Bft) 0,00 h 0,03 h 0,0 km/h (0 Bft)
03.10.2011 02:00 22,8 C 11,6 C 0,0 UV-I 0,0 C 59 % 90 % 0 % 1023,2 hPa 0,0 l/m 0,0 km/h (0 Bft) 0,00 h 0,00 h 0,0 km/h (0 Bft)
03.10.2011 03:00 22,7 C 11,3 C 0,0 UV-I 0,0 C 58 % 91 % 0 % 1022,9 hPa 0,0 l/m 0,0 km/h (0 Bft) 0,00 h 0,07 h 0,0 km/h (0 Bft)
03.10.2011 04:00 22,5 C 11,2 C 0,0 UV-I 0,0 C 58 % 92 % 0 % 1022,5 hPa 0,0 l/m 0,0 km/h (0 Bft) 0,00 h 0,00 h 0,0 km/h (0 Bft)
03.10.2011 05:00 22,3 C 11,1 C 0,0 UV-I 0,0 C 58 % 92 % 0 % 1022,5 hPa 0,1 l/m 0,2 km/h (0 Bft) 0,00 h 0,00 h 0,6 km/h (0 Bft)
03.10.2011 06:00 22,2 C 11,0 C 0,0 UV-I 0,0 C 59 % 92 % 0 % 1022,2 hPa 0,0 l/m 0,0 km/h (0 Bft) 0,00 h 0,00 h 0,0 km/h (0 Bft)
03.10.2011 07:00 22,0 C 11,0 C 0,0 UV-I 0,0 C 59 % 92 % 0 % 1022,6 hPa 0,0 l/m 0,6 km/h (0 Bft) 0,00 h 0,00 h 1,5 km/h (1 Bft)
03.10.2011 08:00 21,9 C 11,3 C 0,0 UV-I 0,6 C 58 % 93 % 17 % 1022,4 hPa 0,0 l/m 1,1 km/h (1 Bft) 0,23 h 0,00 h 1,7 km/h (1 Bft)
03.10.2011 09:00 21,9 C 12,5 C 0,1 UV-I 4,4 C 59 % 93 % 95 % 1022,5 hPa 0,0 l/m 3,3 km/h (1 Bft) 1,00 h 0,00 h 4,7 km/h (1 Bft)
03.10.2011 10:00 22,1 C 15,1 C 0,3 UV-I 5,1 C 59 % 94 % 100 % 1022,6 hPa 0,0 l/m 2,9 km/h (1 Bft) 1,00 h 0,00 h 4,1 km/h (1 Bft)
03.10.2011 11:00 22,4 C 19,1 C 0,8 UV-I 7,0 C 59 % 90 % 100 % 1022,7 hPa 0,0 l/m 1,9 km/h (1 Bft) 1,00 h 0,00 h 2,7 km/h (1 Bft)
03.10.2011 12:00 22,9 C 23,0 C 3,5 UV-I 7,2 C 59 % 71 % 100 % 1022,2 hPa 0,0 l/m 2,7 km/h (1 Bft) 1,00 h 0,00 h 4,0 km/h (1 Bft)
03.10.2011 13:00 23,8 C 25,0 C 4,5 UV-I 5,8 C 56 % 54 % 100 % 1022,2 hPa 0,0 l/m 5,4 km/h (1 Bft) 1,00 h 0,00 h 7,1 km/h (2 Bft)
03.10.2011 14:00 25,1 C 26,2 C 4,5 UV-I 5,2 C 52 % 47 % 100 % 1022,4 hPa 0,0 l/m 6,5 km/h (2 Bft) 1,00 h 0,00 h 8,0 km/h (2 Bft)
03.10.2011 15:00 25,9 C 26,4 C 3,2 UV-I 4,2 C 48 % 45 % 96 % 1022,0 hPa 0,0 l/m 5,1 km/h (1 Bft) 0,90 h 0,00 h 7,2 km/h (2 Bft)
03.10.2011 16:00 26,7 C 26,7 C 2,0 UV-I 3,9 C 46 % 46 % 100 % 1021,7 hPa 0,0 l/m 4,9 km/h (1 Bft) 1,00 h 0,00 h 6,7 km/h (2 Bft)
03.10.2011 17:00 26,5 C 26,3 C 0,5 UV-I 2,9 C 46 % 46 % 81 % 1021,0 hPa 0,0 l/m 3,1 km/h (1 Bft) 1,00 h 0,00 h 4,3 km/h (1 Bft)
03.10.2011 18:00 25,9 C 24,5 C 0,0 UV-I 0,4 C 48 % 50 % 11 % 1020,6 hPa 0,0 l/m 0,6 km/h (0 Bft) 0,13 h 0,00 h 2,0 km/h (1 Bft)
03.10.2011 19:00 25,3 C 22,2 C 0,0 UV-I 0,0 C 50 % 57 % 0 % 1020,6 hPa 0,0 l/m 0,1 km/h (0 Bft) 0,00 h 0,00 h 0,2 km/h (0 Bft)
03.10.2011 20:00 24,7 C 20,2 C 0,0 UV-I 0,0 C 52 % 63 % 0 % 1020,6 hPa 0,0 l/m 0,0 km/h (0 Bft) 0,00 h 0,00 h 0,0 km/h (0 Bft)
03.10.2011 21:00 24,2 C 19,4 C 0,0 UV-I 0,0 C 52 % 66 % 0 % 1020,3 hPa 0,0 l/m 0,3 km/h (0 Bft) 0,00 h 0,00 h 0,1 km/h (0 Bft)
03.10.2011 22:00 23,9 C 19,5 C 0,0 UV-I 0,0 C 52 % 66 % 0 % 1020,3 hPa 0,0 l/m 1,2 km/h (1 Bft) 0,00 h 0,00 h 2,7 km/h (1 Bft)
03.10.2011 23:00 23,6 C 19,7 C 0,0 UV-I 0,0 C 52 % 66 % 0 % 1020,0 hPa 0,0 l/m 2,1 km/h (1 Bft) 0,00 h 0,00 h 3,2 km/h (1 Bft)
04.10.2011 00:00 23,5 C 19,0 C 0,0 UV-I 0,0 C 53 % 68 % 0 % 1019,9 hPa 0,0 l/m 1,4 km/h (1 Bft) 0,00 h 0,00 h 3,0 km/h (1 Bft)
04.10.2011 01:00 23,2 C 18,2 C 0,0 UV-I 0,0 C 53 % 70 % 0 % 1019,8 hPa 0,0 l/m 0,7 km/h (0 Bft) 0,00 h 0,00 h 0,6 km/h (0 Bft)
04.10.2011 02:00 23,0 C 16,7 C 0,0 UV-I 0,0 C 54 % 73 % 0 % 1019,4 hPa 0,0 l/m 0,1 km/h (0 Bft) 0,00 h 0,00 h 0,0 km/h (0 Bft)
04.10.2011 03:00 22,8 C 15,8 C 0,0 UV-I 0,0 C 54 % 77 % 0 % 1019,0 hPa 0,0 l/m 0,3 km/h (0 Bft) 0,00 h 0,00 h 0,4 km/h (0 Bft)
04.10.2011 04:00 22,6 C 16,8 C 0,0 UV-I 0,0 C 53 % 74 % 0 % 1018,8 hPa 0,0 l/m 1,7 km/h (1 Bft) 0,00 h 0,00 h 2,0 km/h (1 Bft)
04.10.2011 05:00 22,4 C 17,2 C 0,0 UV-I 0,0 C 52 % 71 % 0 % 1018,4 hPa 0,0 l/m 2,0 km/h (1 Bft) 0,00 h 0,00 h 2,4 km/h (1 Bft)
04.10.2011 06:00 22,3 C 17,2 C 0,0 UV-I 0,0 C 52 % 70 % 0 % 1018,4 hPa 0,0 l/m 2,8 km/h (1 Bft) 0,00 h 0,00 h 4,6 km/h (1 Bft)
04.10.2011 07:00 22,2 C 16,4 C 0,0 UV-I 0,0 C 52 % 71 % 0 % 1018,5 hPa 0,0 l/m 0,7 km/h (0 Bft) 0,00 h 0,00 h 0,6 km/h (0 Bft)
04.10.2011 08:00 22,2 C 15,8 C 0,0 UV-I 0,4 C 53 % 75 % 12 % 1019,0 hPa 0,0 l/m 1,3 km/h (1 Bft) 0,07 h 0,00 h 1,8 km/h (1 Bft)
04.10.2011 09:00 22,2 C 16,4 C 0,0 UV-I 0,6 C 54 % 78 % 16 % 1019,7 hPa 0,0 l/m 2,2 km/h (1 Bft) 0,00 h 0,00 h 3,5 km/h (1 Bft)
04.10.2011 10:00 22,2 C 16,7 C 0,0 UV-I 0,3 C 57 % 82 % 9 % 1020,3 hPa 0,0 l/m 3,1 km/h (1 Bft) 0,00 h 0,00 h 3,7 km/h (1 Bft)
04.10.2011 11:00 22,2 C 17,1 C 0,1 UV-I 0,6 C 59 % 83 % 17 % 1020,6 hPa 0,0 l/m 3,3 km/h (1 Bft) 0,00 h 0,00 h 4,5 km/h (1 Bft)
04.10.2011 12:00 22,2 C 17,5 C 0,1 UV-I 0,5 C 61 % 84 % 15 % 1020,8 hPa 0,0 l/m 3,9 km/h (1 Bft) 0,00 h 0,00 h 4,6 km/h (1 Bft)
04.10.2011 13:00 22,2 C 17,3 C 0,0 UV-I 0,1 C 62 % 86 % 4 % 1021,0 hPa 0,0 l/m 4,3 km/h (1 Bft) 0,00 h 0,03 h 3,8 km/h (1 Bft)
04.10.2011 14:00 22,2 C 17,1 C 0,1 UV-I 0,1 C 63 % 88 % 4 % 1020,9 hPa 0,0 l/m 2,0 km/h (1 Bft) 0,00 h 0,00 h 3,3 km/h (1 Bft)
04.10.2011 15:00 22,2 C 17,6 C 0,3 UV-I 0,7 C 63 % 87 % 21 % 1020,8 hPa 0,0 l/m 3,1 km/h (1 Bft) 0,00 h 0,10 h 4,5 km/h (1 Bft)
04.10.2011 16:00 22,3 C 18,2 C 0,0 UV-I 0,7 C 62 % 83 % 19 % 1020,3 hPa 0,0 l/m 3,7 km/h (1 Bft) 0,00 h 0,00 h 3,7 km/h (1 Bft)
04.10.2011 17:00 22,5 C 19,1 C 0,3 UV-I 1,4 C 61 % 78 % 41 % 1020,3 hPa 0,0 l/m 3,8 km/h (1 Bft) 0,33 h 0,00 h 6,0 km/h (2 Bft)
04.10.2011 18:00 22,6 C 18,6 C 0,0 UV-I 0,2 C 59 % 76 % 6 % 1020,4 hPa 0,0 l/m 2,6 km/h (1 Bft) 0,10 h 0,00 h 3,2 km/h (1 Bft)
04.10.2011 19:00 22,4 C 17,7 C 0,0 UV-I 0,0 C 59 % 78 % 0 % 1020,7 hPa 0,0 l/m 0,2 km/h (0 Bft) 0,00 h 0,00 h 0,2 km/h (0 Bft)
04.10.2011 20:00 22,2 C 17,3 C 0,0 UV-I 0,0 C 59 % 80 % 0 % 1020,9 hPa 0,0 l/m 1,2 km/h (1 Bft) 0,00 h 0,00 h 2,0 km/h (1 Bft)
04.10.2011 21:00 22,1 C 17,6 C 0,0 UV-I 0,0 C 60 % 79 % 0 % 1020,8 hPa 0,0 l/m 1,4 km/h (1 Bft) 0,00 h 0,00 h 1,9 km/h (1 Bft)
04.10.2011 22:00 22,0 C 17,7 C 0,0 UV-I 0,0 C 59 % 77 % 0 % 1021,0 hPa 0,0 l/m 3,9 km/h (1 Bft) 0,00 h 0,00 h 6,5 km/h (2 Bft)
04.10.2011 23:00 21,8 C 17,6 C 0,0 UV-I 0,0 C 59 % 76 % 0 % 1021,0 hPa 0,0 l/m 4,1 km/h (1 Bft) 0,00 h 0,00 h 5,2 km/h (1 Bft)
05.10.2011 00:00 21,8 C 17,3 C 0,0 UV-I 0,0 C 59 % 78 % 0 % 1020,8 hPa 0,0 l/m 2,5 km/h (1 Bft) 0,00 h 0,00 h 3,7 km/h (1 Bft)
05.10.2011 01:00 21,8 C 16,7 C 0,0 UV-I 0,0 C 59 % 80 % 0 % 1020,7 hPa 0,0 l/m 0,6 km/h (0 Bft) 0,00 h 0,00 h 1,0 km/h (0 Bft)
05.10.2011 02:00 21,6 C 16,7 C 0,0 UV-I 0,0 C 60 % 82 % 0 % 1020,4 hPa 0,0 l/m 1,8 km/h (1 Bft) 0,00 h 0,00 h 2,2 km/h (1 Bft)
05.10.2011 03:00 21,6 C 16,7 C 0,0 UV-I 0,0 C 60 % 82 % 0 % 1020,2 hPa 0,0 l/m 2,4 km/h (1 Bft) 0,00 h 0,00 h 3,0 km/h (1 Bft)
05.10.2011 04:00 21,5 C 16,7 C 0,0 UV-I 0,0 C 61 % 83 % 0 % 1020,1 hPa 0,0 l/m 2,5 km/h (1 Bft) 0,00 h 0,00 h 3,0 km/h (1 Bft)
05.10.2011 05:00 21,4 C 16,7 C 0,0 UV-I 0,0 C 61 % 84 % 0 % 1020,0 hPa 0,0 l/m 3,1 km/h (1 Bft) 0,00 h 0,00 h 3,6 km/h (1 Bft)
05.10.2011 06:00 21,4 C 16,7 C 0,0 UV-I 0,0 C 61 % 84 % 0 % 1019,7 hPa 0,0 l/m 2,8 km/h (1 Bft) 0,00 h 0,00 h 3,0 km/h (1 Bft)
05.10.2011 07:00 22,1 C 16,6 C 0,0 UV-I 0,0 C 62 % 85 % 0 % 1020,2 hPa 0,0 l/m 3,2 km/h (1 Bft) 0,00 h 0,00 h 4,3 km/h (1 Bft)
05.10.2011 08:00 21,9 C 16,7 C 0,0 UV-I 0,0 C 62 % 86 % 0 % 1020,4 hPa 0,0 l/m 3,2 km/h (1 Bft) 0,00 h 0,00 h 4,7 km/h (1 Bft)
05.10.2011 09:00 21,7 C 16,8 C 0,0 UV-I 0,0 C 62 % 86 % 1 % 1020,6 hPa 0,0 l/m 3,2 km/h (1 Bft) 0,00 h 0,00 h 3,9 km/h (1 Bft)
05.10.2011 10:00 21,6 C 17,4 C 0,1 UV-I 0,5 C 62 % 84 % 13 % 1020,5 hPa 0,0 l/m 5,6 km/h (1 Bft) 0,00 h 0,00 h 7,5 km/h (2 Bft)
05.10.2011 11:00 21,8 C 18,1 C 0,5 UV-I 1,2 C 62 % 79 % 35 % 1020,3 hPa 0,0 l/m 6,1 km/h (2 Bft) 0,00 h 0,00 h 7,4 km/h (2 Bft)
05.10.2011 12:00 22,2 C 18,4 C 0,5 UV-I 1,1 C 61 % 77 % 33 % 1020,5 hPa 0,0 l/m 7,1 km/h (2 Bft) 0,00 h 0,00 h 9,1 km/h (2 Bft)
05.10.2011 13:00 22,4 C 18,6 C 0,5 UV-I 1,0 C 60 % 75 % 27 % 1020,6 hPa 0,0 l/m 7,5 km/h (2 Bft) 0,00 h 0,03 h 8,6 km/h (2 Bft)
05.10.2011 14:00 22,5 C 18,5 C 0,3 UV-I 0,6 C 59 % 76 % 18 % 1020,1 hPa 0,0 l/m 6,6 km/h (2 Bft) 0,00 h 0,03 h 6,5 km/h (2 Bft)
05.10.2011 15:00 22,2 C 18,9 C 0,5 UV-I 1,1 C 60 % 75 % 33 % 1019,3 hPa 0,0 l/m 6,3 km/h (2 Bft) 0,00 h 0,00 h 6,5 km/h (2 Bft)
05.10.2011 16:00 22,2 C 19,2 C 0,3 UV-I 0,7 C 59 % 73 % 21 % 1018,8 hPa 0,0 l/m 6,3 km/h (2 Bft) 0,00 h 0,00 h 8,1 km/h (2 Bft)
05.10.2011 17:00 22,3 C 19,1 C 0,0 UV-I 0,1 C 59 % 73 % 4 % 1018,1 hPa 0,0 l/m 5,0 km/h (1 Bft) 0,00 h 0,00 h 5,2 km/h (1 Bft)
05.10.2011 18:00 22,1 C 18,8 C 0,0 UV-I 0,0 C 59 % 74 % 0 % 1017,8 hPa 0,0 l/m 4,1 km/h (1 Bft) 0,00 h 0,00 h 4,7 km/h (1 Bft)
05.10.2011 19:00 22,0 C 18,1 C 0,0 UV-I 0,0 C 59 % 76 % 0 % 1018,1 hPa 0,0 l/m 3,3 km/h (1 Bft) 0,00 h 0,00 h 5,4 km/h (1 Bft)
05.10.2011 20:00 21,7 C 17,8 C 0,0 UV-I 0,0 C 59 % 75 % 0 % 1018,0 hPa 0,0 l/m 5,3 km/h (1 Bft) 0,00 h 0,00 h 6,4 km/h (2 Bft)
05.10.2011 21:00 21,5 C 17,9 C 0,0 UV-I 0,0 C 58 % 72 % 0 % 1017,7 hPa 0,0 l/m 6,3 km/h (2 Bft) 0,00 h 0,00 h 6,9 km/h (2 Bft)
05.10.2011 22:00 21,4 C 17,8 C 0,0 UV-I 0,0 C 58 % 73 % 0 % 1017,3 hPa 0,0 l/m 5,7 km/h (1 Bft) 0,00 h 0,00 h 8,0 km/h (2 Bft)
05.10.2011 23:00 21,4 C 17,7 C 0,0 UV-I 0,0 C 58 % 74 % 0 % 1017,0 hPa 0,0 l/m 5,8 km/h (2 Bft) 0,00 h 0,00 h 7,0 km/h (2 Bft)
06.10.2011 00:00 21,2 C 17,1 C 0,0 UV-I 0,0 C 59 % 77 % 0 % 1016,2 hPa 0,0 l/m 5,9 km/h (2 Bft) 0,00 h 0,00 h 7,9 km/h (2 Bft)
06.10.2011 01:00 21,1 C 16,7 C 0,0 UV-I 0,0 C 59 % 78 % 0 % 1015,4 hPa 0,0 l/m 5,1 km/h (1 Bft) 0,00 h 0,00 h 6,2 km/h (2 Bft)
06.10.2011 02:00 21,0 C 16,5 C 0,0 UV-I 0,0 C 59 % 79 % 0 % 1014,5 hPa 0,0 l/m 4,9 km/h (1 Bft) 0,00 h 0,00 h 6,2 km/h (2 Bft)
06.10.2011 03:00 20,9 C 16,7 C 0,0 UV-I 0,0 C 59 % 78 % 0 % 1013,3 hPa 0,0 l/m 7,1 km/h (2 Bft) 0,00 h 0,00 h 8,6 km/h (2 Bft)
06.10.2011 04:00 20,8 C 17,0 C 0,0 UV-I 0,0 C 59 % 76 % 0 % 1012,3 hPa 0,0 l/m 8,9 km/h (2 Bft) 0,00 h 0,23 h 10,8 km/h (2 Bft)
06.10.2011 05:00 20,7 C 17,2 C 0,0 UV-I 0,0 C 58 % 73 % 0 % 1010,9 hPa 0,0 l/m 10,4 km/h (2 Bft) 0,00 h 0,00 h 12,4 km/h (3 Bft)
06.10.2011 06:00 20,6 C 17,3 C 0,0 UV-I 0,0 C 58 % 74 % 0 % 1009,8 hPa 0,0 l/m 10,1 km/h (2 Bft) 0,00 h 0,00 h 11,2 km/h (2 Bft)
06.10.2011 07:00 20,6 C 17,3 C 0,0 UV-I 0,0 C 59 % 74 % 0 % 1009,0 hPa 0,0 l/m 9,2 km/h (2 Bft) 0,00 h 0,00 h 11,6 km/h (2 Bft)
06.10.2011 08:00 20,6 C 16,9 C 0,0 UV-I 0,0 C 60 % 78 % 0 % 1008,4 hPa 0,1 l/m 10,8 km/h (2 Bft) 0,00 h 0,23 h 14,3 km/h (3 Bft)
06.10.2011 09:00 20,5 C 16,1 C 0,0 UV-I 0,0 C 63 % 84 % 1 % 1008,1 hPa 0,1 l/m 10,7 km/h (2 Bft) 0,00 h 0,10 h 12,2 km/h (2 Bft)
06.10.2011 10:00 20,4 C 16,7 C 0,0 UV-I 0,0 C 63 % 83 % 1 % 1007,4 hPa 0,0 l/m 11,1 km/h (2 Bft) 0,00 h 0,00 h 14,0 km/h (3 Bft)
06.10.2011 11:00 20,4 C 16,5 C 0,1 UV-I 0,0 C 64 % 85 % 0 % 1006,8 hPa 1,5 l/m 9,8 km/h (2 Bft) 0,00 h 0,80 h 11,8 km/h (2 Bft)
06.10.2011 12:00 20,5 C 15,7 C 0,1 UV-I 0,0 C 66 % 89 % 0 % 1006,0 hPa 2,7 l/m 10,2 km/h (2 Bft) 0,00 h 0,60 h 11,5 km/h (2 Bft)
06.10.2011 13:00 20,3 C 14,0 C 0,1 UV-I 0,0 C 65 % 90 % 0 % 1006,9 hPa 3,2 l/m 7,6 km/h (2 Bft) 0,00 h 0,70 h 10,0 km/h (2 Bft)
06.10.2011 14:00 20,3 C 13,6 C 0,1 UV-I 0,2 C 64 % 90 % 7 % 1007,4 hPa 0,0 l/m 5,9 km/h (2 Bft) 0,00 h 0,00 h 7,6 km/h (2 Bft)
06.10.2011 15:00 20,3 C 14,1 C 0,4 UV-I 0,6 C 59 % 79 % 18 % 1007,9 hPa 0,0 l/m 8,5 km/h (2 Bft) 0,00 h 0,00 h 9,5 km/h (2 Bft)
06.10.2011 16:00 20,2 C 14,0 C 0,1 UV-I 0,0 C 54 % 71 % 1 % 1007,9 hPa 0,0 l/m 7,0 km/h (2 Bft) 0,00 h 0,03 h 8,1 km/h (2 Bft)
06.10.2011 17:00 20,2 C 13,6 C 0,0 UV-I 0,0 C 53 % 71 % 0 % 1007,9 hPa 0,0 l/m 4,7 km/h (1 Bft) 0,00 h 0,00 h 5,6 km/h (1 Bft)
06.10.2011 18:00 20,0 C 13,0 C 0,0 UV-I 0,0 C 51 % 70 % 0 % 1007,9 hPa 0,0 l/m 4,6 km/h (1 Bft) 0,00 h 0,00 h 6,5 km/h (2 Bft)
06.10.2011 19:00 19,8 C 12,2 C 0,0 UV-I 0,0 C 49 % 68 % 0 % 1007,9 hPa 0,0 l/m 2,1 km/h (1 Bft) 0,00 h 0,00 h 2,2 km/h (1 Bft)
06.10.2011 20:00 19,5 C 11,3 C 0,0 UV-I 0,0 C 49 % 73 % 0 % 1007,8 hPa 0,0 l/m 0,6 km/h (0 Bft) 0,00 h 0,00 h 1,0 km/h (0 Bft)
06.10.2011 21:00 19,2 C 10,6 C 0,0 UV-I 0,0 C 49 % 74 % 0 % 1008,0 hPa 0,0 l/m 1,0 km/h (0 Bft) 0,00 h 0,00 h 1,3 km/h (1 Bft)
06.10.2011 22:00 18,8 C 10,3 C 0,0 UV-I 0,0 C 48 % 75 % 0 % 1007,6 hPa 0,0 l/m 3,1 km/h (1 Bft) 0,00 h 0,00 h 4,6 km/h (1 Bft)
06.10.2011 23:00 18,5 C 10,1 C 0,0 UV-I 0,0 C 47 % 73 % 0 % 1007,1 hPa 0,0 l/m 3,5 km/h (1 Bft) 0,00 h 0,00 h 4,6 km/h (1 Bft)
07.10.2011 00:00 18,1 C 9,9 C 0,0 UV-I 0,0 C 48 % 75 % 0 % 1006,9 hPa 0,0 l/m 6,4 km/h (2 Bft) 0,00 h 0,00 h 7,6 km/h (2 Bft)
07.10.2011 01:00 17,9 C 9,7 C 0,0 UV-I 0,0 C 49 % 77 % 0 % 1006,7 hPa 0,0 l/m 4,4 km/h (1 Bft) 0,00 h 0,00 h 5,2 km/h (1 Bft)
07.10.2011 02:00 17,6 C 9,8 C 0,0 UV-I 0,0 C 49 % 78 % 0 % 1006,3 hPa 0,0 l/m 7,4 km/h (2 Bft) 0,00 h 0,00 h 9,6 km/h (2 Bft)
07.10.2011 03:00 17,5 C 9,8 C 0,0 UV-I 0,0 C 50 % 78 % 0 % 1005,7 hPa 0,0 l/m 8,3 km/h (2 Bft) 0,00 h 0,00 h 9,1 km/h (2 Bft)
07.10.2011 04:00 17,3 C 9,4 C 0,0 UV-I 0,0 C 51 % 81 % 0 % 1005,6 hPa 0,4 l/m 8,7 km/h (2 Bft) 0,00 h 0,77 h 9,0 km/h (2 Bft)
07.10.2011 05:00 17,2 C 8,5 C 0,0 UV-I 0,0 C 53 % 86 % 0 % 1005,8 hPa 1,2 l/m 4,4 km/h (1 Bft) 0,00 h 0,80 h 5,6 km/h (1 Bft)
07.10.2011 06:00 17,0 C 8,4 C 0,0 UV-I 0,0 C 54 % 89 % 0 % 1006,1 hPa 0,0 l/m 5,3 km/h (1 Bft) 0,00 h 0,00 h 6,3 km/h (2 Bft)
07.10.2011 07:00 16,8 C 8,3 C 0,0 UV-I 0,0 C 54 % 89 % 0 % 1006,3 hPa 0,4 l/m 5,6 km/h (1 Bft) 0,00 h 0,47 h 6,6 km/h (2 Bft)
07.10.2011 08:00 16,8 C 8,3 C 0,0 UV-I 0,0 C 55 % 90 % 0 % 1007,0 hPa 0,4 l/m 5,0 km/h (1 Bft) 0,00 h 0,57 h 6,5 km/h (2 Bft)
07.10.2011 09:00 16,8 C 8,8 C 0,0 UV-I 0,0 C 56 % 91 % 1 % 1007,6 hPa 1,0 l/m 7,4 km/h (2 Bft) 0,00 h 0,77 h 9,7 km/h (2 Bft)
07.10.2011 10:00 16,9 C 9,4 C 0,3 UV-I 0,6 C 57 % 91 % 17 % 1008,7 hPa 0,1 l/m 7,7 km/h (2 Bft) 0,00 h 0,33 h 8,3 km/h (2 Bft)
07.10.2011 11:00 17,1 C 10,5 C 0,5 UV-I 1,2 C 58 % 90 % 34 % 1009,2 hPa 0,2 l/m 8,4 km/h (2 Bft) 0,00 h 0,47 h 9,2 km/h (2 Bft)
07.10.2011 12:00 17,6 C 12,0 C 2,2 UV-I 3,4 C 58 % 87 % 80 % 1009,9 hPa 0,1 l/m 7,9 km/h (2 Bft) 0,63 h 0,33 h 10,6 km/h (2 Bft)
07.10.2011 13:00 18,4 C 12,7 C 1,6 UV-I 2,5 C 57 % 82 % 54 % 1010,5 hPa 0,6 l/m 6,8 km/h (2 Bft) 0,47 h 0,40 h 7,6 km/h (2 Bft)
07.10.2011 14:00 19,2 C 12,9 C 2,8 UV-I 3,6 C 56 % 84 % 83 % 1011,2 hPa 0,0 l/m 6,5 km/h (2 Bft) 0,70 h 0,00 h 7,1 km/h (2 Bft)
07.10.2011 15:00 19,5 C 12,4 C 0,9 UV-I 0,8 C 55 % 84 % 22 % 1011,3 hPa 1,0 l/m 5,5 km/h (1 Bft) 0,03 h 0,37 h 7,4 km/h (2 Bft)
07.10.2011 16:00 20,1 C 13,4 C 1,3 UV-I 2,4 C 52 % 77 % 62 % 1011,9 hPa 0,0 l/m 7,3 km/h (2 Bft) 0,53 h 0,03 h 9,3 km/h (2 Bft)
07.10.2011 17:00 19,8 C 12,1 C 0,0 UV-I 0,0 C 52 % 81 % 0 % 1012,1 hPa 1,7 l/m 3,6 km/h (1 Bft) 0,00 h 0,77 h 4,6 km/h (1 Bft)
07.10.2011 18:00 19,3 C 10,9 C 0,0 UV-I 0,0 C 55 % 87 % 0 % 1012,4 hPa 2,3 l/m 2,9 km/h (1 Bft) 0,00 h 0,50 h 3,8 km/h (1 Bft)
07.10.2011 19:00 18,7 C 10,3 C 0,0 UV-I 0,0 C 56 % 89 % 0 % 1012,7 hPa 0,6 l/m 3,5 km/h (1 Bft) 0,00 h 0,40 h 4,8 km/h (1 Bft)
07.10.2011 20:00 18,3 C 10,0 C 0,0 UV-I 0,0 C 57 % 90 % 0 % 1013,0 hPa 0,0 l/m 2,9 km/h (1 Bft) 0,00 h 0,03 h 3,4 km/h (1 Bft)
07.10.2011 21:00 18,0 C 9,9 C 0,0 UV-I 0,0 C 57 % 90 % 0 % 1013,2 hPa 0,0 l/m 4,0 km/h (1 Bft) 0,00 h 0,00 h 4,8 km/h (1 Bft)
07.10.2011 22:00 17,9 C 10,0 C 0,0 UV-I 0,0 C 57 % 91 % 0 % 1013,6 hPa 0,1 l/m 4,7 km/h (1 Bft) 0,00 h 0,23 h 6,0 km/h (2 Bft)
07.10.2011 23:00 17,8 C 10,1 C 0,0 UV-I 0,0 C 58 % 91 % 0 % 1013,7 hPa 0,2 l/m 4,9 km/h (1 Bft) 0,00 h 0,47 h 4,9 km/h (1 Bft)
08.10.2011 00:00 17,8 C 9,7 C 0,0 UV-I 0,0 C 58 % 91 % 0 % 1013,6 hPa 0,2 l/m 4,7 km/h (1 Bft) 0,00 h 0,60 h 7,0 km/h (2 Bft)
08.10.2011 01:00 17,7 C 9,2 C 0,0 UV-I 0,0 C 57 % 91 % 0 % 1013,5 hPa 0,0 l/m 3,9 km/h (1 Bft) 0,00 h 0,00 h 5,4 km/h (1 Bft)
08.10.2011 02:00 17,6 C 8,9 C 0,0 UV-I 0,0 C 57 % 91 % 0 % 1013,6 hPa 0,0 l/m 3,5 km/h (1 Bft) 0,00 h 0,00 h 4,2 km/h (1 Bft)
08.10.2011 03:00 17,4 C 8,7 C 0,0 UV-I 0,0 C 57 % 91 % 0 % 1013,7 hPa 0,0 l/m 2,5 km/h (1 Bft) 0,00 h 0,00 h 2,3 km/h (1 Bft)
08.10.2011 04:00 17,3 C 8,7 C 0,0 UV-I 0,0 C 57 % 92 % 0 % 1013,7 hPa 0,0 l/m 1,4 km/h (1 Bft) 0,00 h 0,00 h 2,6 km/h (1 Bft)
08.10.2011 05:00 17,2 C 8,7 C 0,0 UV-I 0,0 C 57 % 91 % 0 % 1013,8 hPa 0,0 l/m 0,8 km/h (0 Bft) 0,00 h 0,00 h 1,6 km/h (1 Bft)
08.10.2011 06:00 17,2 C 8,5 C 0,0 UV-I 0,0 C 56 % 91 % 0 % 1014,1 hPa 0,0 l/m 1,4 km/h (1 Bft) 0,00 h 0,00 h 1,1 km/h (1 Bft)
08.10.2011 07:00 17,1 C 8,3 C 0,0 UV-I 0,0 C 56 % 90 % 0 % 1014,0 hPa 0,0 l/m 0,7 km/h (0 Bft) 0,00 h 0,00 h 1,2 km/h (1 Bft)
08.10.2011 08:00 17,0 C 8,1 C 0,0 UV-I 0,0 C 56 % 90 % 0 % 1014,0 hPa 0,0 l/m 0,5 km/h (0 Bft) 0,00 h 0,00 h 0,5 km/h (0 Bft)
08.10.2011 09:00 17,0 C 8,9 C 0,0 UV-I 0,0 C 55 % 90 % 0 % 1014,2 hPa 0,0 l/m 1,5 km/h (1 Bft) 0,00 h 0,00 h 2,3 km/h (1 Bft)
08.10.2011 10:00 17,2 C 9,7 C 0,1 UV-I 0,4 C 56 % 88 % 12 % 1014,6 hPa 0,0 l/m 4,4 km/h (1 Bft) 0,00 h 0,00 h 5,9 km/h (2 Bft)
08.10.2011 11:00 17,5 C 11,5 C 0,8 UV-I 5,0 C 56 % 83 % 96 % 1014,6 hPa 0,0 l/m 5,5 km/h (1 Bft) 0,93 h 0,00 h 6,8 km/h (2 Bft)
08.10.2011 12:00 17,9 C 11,9 C 0,2 UV-I 1,8 C 55 % 77 % 46 % 1014,8 hPa 0,0 l/m 5,3 km/h (1 Bft) 0,17 h 0,00 h 5,6 km/h (1 Bft)
08.10.2011 13:00 18,1 C 11,6 C 0,2 UV-I 1,3 C 55 % 79 % 37 % 1014,7 hPa 0,0 l/m 6,2 km/h (2 Bft) 0,00 h 0,07 h 7,3 km/h (2 Bft)
08.10.2011 14:00 18,6 C 12,4 C 1,1 UV-I 2,7 C 54 % 78 % 73 % 1014,6 hPa 0,0 l/m 6,4 km/h (2 Bft) 0,47 h 0,10 h 8,9 km/h (2 Bft)
08.10.2011 15:00 18,8 C 11,2 C 0,3 UV-I 0,2 C 54 % 82 % 6 % 1014,6 hPa 1,0 l/m 3,4 km/h (1 Bft) 0,00 h 0,60 h 4,1 km/h (1 Bft)
08.10.2011 16:00 18,8 C 10,6 C 0,2 UV-I 0,4 C 55 % 86 % 11 % 1014,2 hPa 0,0 l/m 2,4 km/h (1 Bft) 0,00 h 0,00 h 3,0 km/h (1 Bft)
08.10.2011 17:00 19,1 C 11,3 C 0,1 UV-I 1,7 C 55 % 85 % 47 % 1014,2 hPa 0,0 l/m 4,3 km/h (1 Bft) 0,47 h 0,07 h 5,2 km/h (1 Bft)
08.10.2011 18:00 18,9 C 10,1 C 0,0 UV-I 0,0 C 55 % 85 % 0 % 1014,4 hPa 0,0 l/m 1,1 km/h (1 Bft) 0,00 h 0,00 h 1,1 km/h (0 Bft)
08.10.2011 19:00 18,4 C 9,5 C 0,0 UV-I 0,0 C 56 % 87 % 0 % 1014,8 hPa 2,8 l/m 3,4 km/h (1 Bft) 0,00 h 0,17 h 3,6 km/h (1 Bft)
08.10.2011 20:00 18,1 C 8,2 C 0,0 UV-I 0,0 C 57 % 87 % 0 % 1015,5 hPa 0,1 l/m 0,4 km/h (0 Bft) 0,00 h 0,13 h 0,0 km/h (0 Bft)
08.10.2011 21:00 17,9 C 7,8 C 0,0 UV-I 0,0 C 57 % 89 % 0 % 1015,7 hPa 0,1 l/m 0,1 km/h (0 Bft) 0,00 h 0,23 h 0,4 km/h (0 Bft)
08.10.2011 22:00 17,8 C 7,8 C 0,0 UV-I 0,0 C 57 % 90 % 0 % 1016,2 hPa 0,6 l/m 0,4 km/h (0 Bft) 0,00 h 0,00 h 0,4 km/h (0 Bft)
08.10.2011 23:00 17,7 C 7,4 C 0,0 UV-I 0,0 C 57 % 91 % 0 % 1016,4 hPa 0,0 l/m 0,1 km/h (0 Bft) 0,00 h 0,00 h 0,0 km/h (0 Bft)
09.10.2011 00:00 17,6 C 7,7 C 0,0 UV-I 0,0 C 58 % 92 % 0 % 1017,0 hPa 0,1 l/m 0,1 km/h (0 Bft) 0,00 h 0,30 h 0,2 km/h (0 Bft)
09.10.2011 01:00 17,6 C 7,6 C 0,0 UV-I 0,0 C 58 % 92 % 0 % 1017,2 hPa 0,0 l/m 0,0 km/h (0 Bft) 0,00 h 0,00 h 0,0 km/h (0 Bft)
09.10.2011 02:00 17,6 C 7,7 C 0,0 UV-I 0,0 C 58 % 92 % 0 % 1017,4 hPa 0,0 l/m 0,0 km/h (0 Bft) 0,00 h 0,00 h 0,0 km/h (0 Bft)
09.10.2011 03:00 17,6 C 7,4 C 0,0 UV-I 0,0 C 58 % 92 % 0 % 1017,9 hPa 0,0 l/m 0,0 km/h (0 Bft) 0,00 h 0,00 h 0,0 km/h (0 Bft)
09.10.2011 04:00 17,5 C 7,3 C 0,0 UV-I 0,0 C 58 % 93 % 0 % 1017,9 hPa 0,0 l/m 0,0 km/h (0 Bft) 0,00 h 0,00 h 0,0 km/h (0 Bft)
09.10.2011 05:00 17,4 C 6,2 C 0,0 UV-I 0,0 C 57 % 92 % 0 % 1018,0 hPa 0,0 l/m 0,0 km/h (0 Bft) 0,00 h 0,00 h 0,0 km/h (0 Bft)
09.10.2011 06:00 17,2 C 5,5 C 0,0 UV-I 0,0 C 57 % 93 % 0 % 1018,3 hPa 0,0 l/m 0,1 km/h (0 Bft) 0,00 h 0,00 h 0,2 km/h (0 Bft)
09.10.2011 07:00 17,2 C 5,7 C 0,0 UV-I 0,0 C 57 % 93 % 0 % 1018,9 hPa 0,0 l/m 0,8 km/h (0 Bft) 0,00 h 0,13 h 1,2 km/h (1 Bft)
09.10.2011 08:00 17,2 C 6,2 C 0,0 UV-I 0,0 C 57 % 94 % 0 % 1019,0 hPa 0,1 l/m 1,9 km/h (1 Bft) 0,00 h 0,07 h 2,9 km/h (1 Bft)
09.10.2011 09:00 17,2 C 6,9 C 0,0 UV-I 0,0 C 56 % 94 % 1 % 1019,6 hPa 0,0 l/m 4,3 km/h (1 Bft) 0,00 h 0,00 h 6,0 km/h (2 Bft)
09.10.2011 10:00 17,3 C 7,8 C 0,0 UV-I 0,5 C 57 % 94 % 16 % 1020,0 hPa 0,0 l/m 4,6 km/h (1 Bft) 0,00 h 0,00 h 6,3 km/h (2 Bft)
09.10.2011 11:00 17,7 C 9,0 C 0,5 UV-I 3,4 C 57 % 94 % 84 % 1020,1 hPa 0,0 l/m 5,9 km/h (2 Bft) 0,77 h 0,00 h 6,6 km/h (2 Bft)
09.10.2011 12:00 18,1 C 11,7 C 1,7 UV-I 5,1 C 57 % 91 % 100 % 1020,0 hPa 0,0 l/m 7,1 km/h (2 Bft) 1,00 h 0,00 h 8,4 km/h (2 Bft)
09.10.2011 13:00 18,7 C 13,6 C 2,8 UV-I 4,6 C 55 % 81 % 100 % 1019,7 hPa 0,0 l/m 7,0 km/h (2 Bft) 1,00 h 0,00 h 7,6 km/h (2 Bft)
09.10.2011 14:00 19,4 C 14,2 C 1,4 UV-I 2,7 C 52 % 74 % 76 % 1019,1 hPa 0,0 l/m 7,2 km/h (2 Bft) 0,40 h 0,00 h 9,2 km/h (2 Bft)
09.10.2011 15:00 19,2 C 14,2 C 0,2 UV-I 0,8 C 52 % 71 % 24 % 1018,2 hPa 0,0 l/m 5,3 km/h (1 Bft) 0,00 h 0,17 h 5,5 km/h (1 Bft)
09.10.2011 16:00 19,0 C 13,8 C 0,1 UV-I 0,2 C 53 % 75 % 5 % 1017,3 hPa 0,1 l/m 5,5 km/h (1 Bft) 0,00 h 0,63 h 6,1 km/h (2 Bft)
09.10.2011 17:00 18,7 C 12,4 C 0,0 UV-I 0,0 C 56 % 83 % 0 % 1017,1 hPa 1,5 l/m 3,7 km/h (1 Bft) 0,00 h 1,00 h 4,7 km/h (1 Bft)
09.10.2011 18:00 18,5 C 11,5 C 0,0 UV-I 0,0 C 58 % 89 % 0 % 1016,5 hPa 0,2 l/m 5,3 km/h (1 Bft) 0,00 h 0,70 h 7,4 km/h (2 Bft)
09.10.2011 19:00 18,3 C 11,3 C 0,0 UV-I 0,0 C 59 % 91 % 0 % 1016,2 hPa 0,2 l/m 3,7 km/h (1 Bft) 0,00 h 0,37 h 3,6 km/h (1 Bft)
09.10.2011 20:00 18,3 C 11,5 C 0,0 UV-I 0,0 C 60 % 92 % 0 % 1016,0 hPa 1,4 l/m 2,3 km/h (1 Bft) 0,00 h 0,90 h 3,0 km/h (1 Bft)
09.10.2011 21:00 18,3 C 12,1 C 0,0 UV-I 0,0 C 61 % 93 % 0 % 1015,5 hPa 0,5 l/m 3,0 km/h (1 Bft) 0,00 h 0,57 h 3,8 km/h (1 Bft)
09.10.2011 22:00 18,4 C 12,8 C 0,0 UV-I 0,0 C 63 % 93 % 0 % 1015,2 hPa 0,6 l/m 4,8 km/h (1 Bft) 0,00 h 1,00 h 5,6 km/h (1 Bft)
09.10.2011 23:00 18,4 C 13,5 C 0,0 UV-I 0,0 C 64 % 94 % 0 % 1014,8 hPa 0,5 l/m 4,2 km/h (1 Bft) 0,00 h 0,93 h 5,2 km/h (1 Bft)
Min-Datum _ 07.10.11 09.10.11 03.10.11 03.10.11 03.10.11 03.10.11 03.10.11 07.10.11 - 03.10.11 - - 03.10.11
_ Min-Zeit 09:36 06:12 00:00 00:00 16:24 14:54 00:00 03:46 - 00:00 - - 00:00
Minimum _ 16,7 C 5,4 C 0,0 UV-I 0,0 C 46 % 42 % 0 % 1005,4 hPa - 0,0 km/h (0 Bft) - - 0,0 km/h (0 Bft)
Max-Datum _ 03.10.11 03.10.11 03.10.11 03.10.11 06.10.11 09.10.11 03.10.11 03.10.11 06.10.11 06.10.11 03.10.11 03.10.11 06.10.11
_ Max-Zeit 16:50 15:54 14:10 12:00 12:28 11:44 09:14 00:26 13:16 12:46 08:46 00:26 08:38
Maximum _ 26,9 C 26,9 C 4,8 UV-I 7,9 C 67 % 95 % 100 % 1023,8 hPa 3,2 l/m 14,5 km/h
S (3 Bft)
0,03 h 0,03 h 39,3 km/h
S (6 Bft)
Durchschnitt _ 20,3 C 13,9 C 0,3 UV-I 0,6 C 57 % 81 % 14 % 1016,1 hPa #28,6 l/m 3,8 km/h (1 Bft) #17:20 h #19:34 h 4,8 km/h (1 Bft)
© 2012 W. Hausmann